Time;durP1;ratioP1;P1;durP2;ratioP2;P2;SDS_P1;SDS_P2;PMS_P1;PMS_P2;Temp;Humidity;BMP_temperature;BMP_pressure;BME280_temperature;BME280_humidity;BME280_pressure;Samples;Min_cycle;Max_cycle;Signal;HPM_P1;HPM_P2
2022/01/30 00:00:33;;;;;;;18.02;4.72;;;6.20;99.90;;;;;;5093153;28;20519;-74
2022/01/30 00:02:59;;;;;;;23.63;3.88;;;6.30;99.90;;;;;;5093809;28;20048;-74
2022/01/30 00:05:25;;;;;;;18.77;4.38;;;6.30;99.90;;;;;;5093258;28;20044;-74
2022/01/30 00:07:51;;;;;;;27.35;4.45;;;6.30;99.90;;;;;;5093324;28;20052;-74
2022/01/30 00:10:17;;;;;;;19.35;4.22;;;6.30;99.90;;;;;;5093318;28;20050;-75
2022/01/30 00:12:50;;;;;;;20.88;4.22;;;6.30;99.90;;;;;;5093218;28;20051;-74
2022/01/30 00:15:18;;;;;;;23.00;4.55;;;6.30;99.90;;;;;;5093697;28;20436;-73
2022/01/30 00:17:50;;;;;;;32.05;5.07;;;6.40;99.90;;;;;;5093217;28;20052;-74
2022/01/30 00:20:21;;;;;;;26.05;5.38;;;6.30;99.90;;;;;;5093419;28;20052;-74
2022/01/30 00:22:54;;;;;;;24.60;4.65;;;6.30;99.90;;;;;;5093397;28;20052;-74
2022/01/30 00:25:31;;;;;;;17.00;4.22;;;6.30;99.90;;;;;;5095822;28;20503;-74
2022/01/30 00:28:04;;;;;;;22.80;4.85;;;6.30;99.90;;;;;;5096760;28;20048;-74
2022/01/30 00:30:34;;;;;;;23.25;4.43;;;6.30;99.90;;;;;;5096713;28;20087;-74
2022/01/30 00:33:01;;;;;;;27.20;4.57;;;6.40;99.90;;;;;;5096372;28;20083;-73
2022/01/30 00:35:26;;;;;;;18.25;3.85;;;6.50;99.90;;;;;;5096227;28;20484;-74
2022/01/30 00:37:52;;;;;;;26.80;4.60;;;6.50;99.90;;;;;;5096524;28;20055;-74
2022/01/30 00:40:17;;;;;;;23.55;4.18;;;6.40;99.90;;;;;;5096432;28;20126;-74
2022/01/30 00:42:43;;;;;;;24.05;4.57;;;6.40;99.90;;;;;;5096453;28;20048;-74
2022/01/30 00:45:09;;;;;;;25.65;3.90;;;6.30;99.90;;;;;;5096371;28;20040;-74
2022/01/30 00:47:34;;;;;;;26.73;3.88;;;6.30;99.90;;;;;;5096385;28;20178;-74
2022/01/30 00:50:00;;;;;;;20.45;4.10;;;6.20;99.90;;;;;;5096357;28;20044;-74
2022/01/30 00:52:25;;;;;;;30.02;4.97;;;6.20;99.90;;;;;;5096113;28;20047;-75
2022/01/30 00:54:51;;;;;;;21.45;4.43;;;6.10;99.90;;;;;;5095704;28;20050;-74
2022/01/30 00:57:16;;;;;;;22.25;3.60;;;6.10;99.90;;;;;;5096103;28;20044;-74
2022/01/30 00:59:42;;;;;;;20.95;4.40;;;6.10;99.90;;;;;;5095734;28;20135;-74
2022/01/30 01:02:08;;;;;;;19.17;3.70;;;6.10;99.90;;;;;;5095952;28;20094;-74
2022/01/30 01:04:33;;;;;;;21.90;5.25;;;6.10;99.90;;;;;;5095988;28;20048;-74
2022/01/30 01:06:59;;;;;;;21.23;3.97;;;6.10;99.90;;;;;;5095854;28;20123;-74
2022/01/30 01:09:32;;;;;;;24.10;4.40;;;6.10;99.90;;;;;;5095852;28;20445;-74
2022/01/30 01:23:27;;;;;;;20.13;4.03;;;6.10;99.90;;;;;;5095814;28;20434;-75
2022/01/30 01:25:54;;;;;;;23.90;3.72;;;6.00;99.90;;;;;;5095470;28;20048;-74
2022/01/30 01:28:20;;;;;;;;;;;5.90;99.90;;;;;;5095881;28;20094;-73
2022/01/30 01:30:46;;;;;;;18.45;3.95;;;5.70;99.90;;;;;;5095455;28;19924;-74
2022/01/30 01:33:12;;;;;;;16.63;3.33;;;5.60;99.90;;;;;;5095704;28;20040;-74
2022/01/30 01:35:38;;;;;;;18.40;3.30;;;5.60;99.90;;;;;;5095440;28;20048;-74
2022/01/30 01:38:05;;;;;;;18.17;3.72;;;5.50;99.90;;;;;;5095335;28;20036;-75
2022/01/30 01:40:30;;;;;;;18.83;3.20;;;5.40;99.90;;;;;;5095128;28;20498;-74
2022/01/30 01:43:00;;;;;;;21.85;3.97;;;5.40;99.90;;;;;;5095246;28;20177;-74
2022/01/30 01:45:32;;;;;;;21.50;3.50;;;5.30;99.90;;;;;;5094987;28;20076;-73
2022/01/30 01:48:02;;;;;;;18.48;3.70;;;5.30;99.90;;;;;;5095143;28;20048;-74
2022/01/30 01:50:38;;;;;;;19.77;3.95;;;5.30;99.90;;;;;;5095075;28;20048;-73
2022/01/30 01:53:08;;;;;;;18.65;3.53;;;5.20;99.90;;;;;;5095022;28;20043;-74
2022/01/30 01:55:35;;;;;;;19.33;4.22;;;5.20;99.90;;;;;;5095325;28;20040;-73
2022/01/30 01:58:01;;;;;;;26.55;4.00;;;5.20;99.90;;;;;;5095488;28;20043;-74
2022/01/30 02:00:27;;;;;;;23.30;4.28;;;5.20;99.90;;;;;;5094469;28;20048;-74
2022/01/30 02:02:54;;;;;;;24.58;4.38;;;5.20;99.90;;;;;;5094895;28;20044;-73
2022/01/30 02:05:19;;;;;;;;;;;5.20;99.90;;;;;;5095255;28;20098;-74
2022/01/30 02:10:20;;;;;;;25.60;3.45;;;5.30;99.90;;;;;;5095243;28;20399;-73
2022/01/30 02:12:50;;;;;;;22.65;4.15;;;5.30;99.90;;;;;;5094613;28;20040;-74
2022/01/30 02:26:03;;;;;;;21.40;3.83;;;5.70;99.90;;;;;;5094646;28;20043;-74
2022/01/30 02:28:31;;;;;;;30.00;4.95;;;5.50;99.90;;;;;;5094896;28;20052;-75
2022/01/30 02:31:13;;;;;;;26.48;4.32;;;5.50;99.90;;;;;;5094299;28;20044;-74
2022/01/30 02:33:40;;;;;;;21.70;4.47;;;5.50;99.90;;;;;;5094345;28;20048;-74
2022/01/30 02:36:06;;;;;;;22.85;4.13;;;5.40;99.90;;;;;;5094252;28;20048;-74
2022/01/30 02:38:32;;;;;;;23.05;5.10;;;5.40;99.90;;;;;;5094225;28;20036;-74
2022/01/30 02:40:58;;;;;;;25.77;4.15;;;5.30;99.90;;;;;;5094082;28;20040;-74
2022/01/30 02:43:30;;;;;;;24.33;3.77;;;5.20;99.90;;;;;;5094049;28;20059;-74
2022/01/30 02:46:10;;;;;;;25.17;5.03;;;5.20;99.90;;;;;;5094218;28;20384;-74
2022/01/30 02:48:55;;;;;;;18.75;3.75;;;5.40;99.90;;;;;;5094499;28;20485;-73
2022/01/30 02:51:22;;;;;;;20.10;3.85;;;5.20;99.90;;;;;;5094219;28;20127;-74
2022/01/30 02:54:02;;;;;;;23.17;3.95;;;5.20;99.90;;;;;;5094493;28;20048;-74
2022/01/30 02:56:28;;;;;;;20.65;3.90;;;5.30;99.90;;;;;;5094254;28;20461;-74
2022/01/30 02:58:54;;;;;;;23.93;4.70;;;5.30;99.90;;;;;;5093766;28;20127;-74
2022/01/30 03:01:19;;;;;;;20.83;4.65;;;6.40;99.90;;;;;;5093871;28;20136;-73
2022/01/30 03:03:45;;;;;;;27.65;5.25;;;5.40;99.90;;;;;;5093922;28;20389;-73
2022/01/30 03:06:11;;;;;;;31.30;5.18;;;5.50;99.90;;;;;;5092681;28;20093;-74
2022/01/30 03:08:37;;;;;;;29.75;5.10;;;5.40;99.90;;;;;;5093824;28;20051;-74
2022/01/30 03:11:03;;;;;;;23.67;4.33;;;5.30;99.90;;;;;;5092699;28;20069;-74
2022/01/30 03:13:28;;;;;;;27.17;4.83;;;5.20;99.90;;;;;;5093771;28;20040;-74
2022/01/30 03:15:55;;;;;;;27.05;4.25;;;5.10;99.90;;;;;;5094007;28;20285;-74
2022/01/30 03:18:21;;;;;;;29.13;4.35;;;5.00;99.90;;;;;;5093803;28;20048;-73
2022/01/30 03:20:48;;;;;;;35.67;5.78;;;5.00;99.90;;;;;;5092168;28;20043;-74
2022/01/30 03:23:14;;;;;;;21.95;4.10;;;5.10;99.90;;;;;;5094153;28;20048;-74
2022/01/30 03:25:39;;;;;;;19.40;4.00;;;5.00;99.90;;;;;;5093286;28;20131;-74
2022/01/30 03:28:05;;;;;;;22.58;4.32;;;5.00;99.90;;;;;;5093855;28;20072;-73
2022/01/30 03:30:32;;;;;;;23.40;3.97;;;4.90;99.90;;;;;;5093763;28;20429;-73
2022/01/30 03:32:58;;;;;;;;;;;4.90;99.90;;;;;;5093895;28;20044;-74
2022/01/30 03:35:24;;;;;;;25.88;4.72;;;4.80;99.90;;;;;;5093512;28;19924;-74
2022/01/30 03:37:50;;;;;;;24.90;4.65;;;4.80;99.90;;;;;;5093263;28;20071;-73
2022/01/30 03:40:16;;;;;;;26.33;4.63;;;4.80;99.90;;;;;;5093482;28;20088;-73
2022/01/30 03:42:41;;;;;;;27.93;5.10;;;4.80;99.90;;;;;;5092408;28;20051;-73
2022/01/30 03:45:08;;;;;;;18.30;3.65;;;4.80;99.90;;;;;;5093524;28;20036;-73
2022/01/30 03:47:33;;;;;;;27.27;5.40;;;4.80;99.90;;;;;;5093401;28;20048;-73
2022/01/30 03:49:59;;;;;;;27.55;4.95;;;4.80;99.90;;;;;;5093406;28;20055;-73
2022/01/30 03:52:24;;;;;;;28.75;5.43;;;4.80;99.90;;;;;;5093430;28;20369;-74
2022/01/30 03:54:50;;;;;;;34.45;6.07;;;4.80;99.90;;;;;;5093297;28;20484;-74
2022/01/30 03:57:15;;;;;;;32.03;4.63;;;4.80;99.90;;;;;;5093370;28;20085;-74
2022/01/30 03:59:41;;;;;;;25.92;4.90;;;4.90;99.90;;;;;;5095240;28;20091;-74
2022/01/30 04:02:08;;;;;;;26.48;5.93;;;4.90;99.90;;;;;;5097286;28;20032;-75
2022/01/30 04:04:33;;;;;;;26.00;5.50;;;5.00;99.90;;;;;;5096737;28;20063;-73
2022/01/30 04:07:00;;;;;;;26.33;5.07;;;5.00;99.90;;;;;;5097088;28;20523;-74
2022/01/30 04:09:27;;;;;;;23.13;4.47;;;5.10;99.90;;;;;;5096978;28;20058;-73
2022/01/30 04:11:53;;;;;;;18.17;3.70;;;5.10;99.90;;;;;;5096946;28;20048;-73
2022/01/30 04:14:19;;;;;;;28.90;4.90;;;5.10;99.90;;;;;;5097133;28;20051;-74
2022/01/30 04:16:45;;;;;;;27.00;5.35;;;5.20;99.90;;;;;;5096756;28;20154;-74
2022/01/30 04:19:11;;;;;;;28.88;5.05;;;5.30;99.90;;;;;;5096326;28;20048;-74
2022/01/30 04:21:38;;;;;;;30.73;5.38;;;5.10;99.90;;;;;;5096105;28;20047;-75
2022/01/30 04:24:04;;;;;;;28.70;6.07;;;5.20;99.90;;;;;;5096741;28;20048;-73
2022/01/30 04:26:30;;;;;;;34.03;5.63;;;5.10;99.90;;;;;;5096657;28;20040;-73
2022/01/30 04:28:56;;;;;;;25.65;5.55;;;5.10;99.90;;;;;;5096922;28;20161;-75
2022/01/30 04:31:21;;;;;;;28.25;4.90;;;5.10;99.90;;;;;;5096625;28;20176;-74
2022/01/30 04:33:48;;;;;;;27.58;5.72;;;5.10;99.90;;;;;;5096177;28;20048;-74
2022/01/30 04:36:19;;;;;;;34.67;5.72;;;5.20;99.90;;;;;;5096498;28;20048;-74
2022/01/30 05:07:45;;;;;;;27.05;6.90;;;5.30;99.90;;;;;;5096291;28;20079;-73
2022/01/30 05:10:10;;;;;;;30.27;6.18;;;5.20;99.90;;;;;;5095725;28;20047;-73
2022/01/30 05:12:45;;;;;;;29.02;5.47;;;5.10;99.90;;;;;;5095751;28;20044;-73
2022/01/30 05:15:11;;;;;;;34.03;6.20;;;5.10;99.90;;;;;;5095879;28;20044;-73
2022/01/30 05:17:37;;;;;;;35.17;6.55;;;5.00;99.90;;;;;;5095648;28;20043;-73
2022/01/30 05:20:03;;;;;;;30.88;5.10;;;5.30;99.90;;;;;;5095220;28;20046;-74
2022/01/30 05:22:29;;;;;;;32.47;6.55;;;5.00;99.90;;;;;;5095578;28;20094;-75
2022/01/30 05:24:55;;;;;;;28.25;4.88;;;5.00;99.90;;;;;;5095527;28;20044;-74
2022/01/30 05:27:21;;;;;;;28.50;6.80;;;5.00;99.90;;;;;;5095761;28;20083;-74
2022/01/30 05:29:47;;;;;;;33.30;5.57;;;4.90;99.90;;;;;;5094736;28;20487;-74
2022/01/30 05:32:13;;;;;;;33.28;5.93;;;4.90;99.90;;;;;;5095450;28;20092;-74
2022/01/30 05:34:39;;;;;;;34.92;6.38;;;4.90;99.90;;;;;;5095355;28;20048;-74
2022/01/30 05:37:08;;;;;;;31.40;6.30;;;4.80;99.90;;;;;;5095004;28;20475;-74
2022/01/30 05:39:34;;;;;;;35.88;6.47;;;4.80;99.90;;;;;;5094279;28;20487;-74
2022/01/30 05:42:00;;;;;;;31.63;6.32;;;4.80;99.90;;;;;;5095259;28;20055;-74
2022/01/30 05:44:40;;;;;;;27.63;6.03;;;4.80;99.90;;;;;;5095476;28;20047;-74
2022/01/30 05:47:10;;;;;;;31.73;7.60;;;4.80;99.90;;;;;;5095200;28;20061;-76
2022/01/30 05:49:37;;;;;;;27.73;6.20;;;4.80;99.90;;;;;;5095106;28;20484;-73
2022/01/30 05:52:03;;;;;;;34.00;6.03;;;4.90;99.90;;;;;;5095022;28;20494;-74
2022/01/30 05:54:29;;;;;;;27.77;5.85;;;4.90;99.90;;;;;;5095258;28;20127;-73
2022/01/30 05:56:54;;;;;;;35.35;5.70;;;5.00;99.90;;;;;;5094733;28;20091;-74
2022/01/30 05:59:20;;;;;;;29.90;5.60;;;4.90;99.90;;;;;;5094863;28;20059;-73
2022/01/30 06:01:45;;;;;;;24.23;5.45;;;5.00;99.90;;;;;;5094732;28;20075;-74
2022/01/30 06:04:11;;;;;;;31.13;5.78;;;4.90;99.90;;;;;;5094779;28;20036;-74
2022/01/30 06:06:36;;;;;;;25.92;5.10;;;4.90;99.90;;;;;;5095097;28;20048;-74
2022/01/30 06:09:19;;;;;;;29.75;6.30;;;4.80;99.90;;;;;;5094611;28;20043;-74
2022/01/30 06:11:49;;;;;;;33.90;6.65;;;4.80;99.90;;;;;;5094731;28;20048;-73
2022/01/30 06:14:16;;;;;;;36.20;7.03;;;4.70;99.90;;;;;;5094373;28;20055;-73
2022/01/30 06:16:42;;;;;;;;;;;4.70;99.90;;;;;;5094688;28;20484;-74
2022/01/30 06:19:08;;;;;;;35.85;7.22;;;4.70;99.90;;;;;;5094548;28;19927;-73
2022/01/30 06:21:33;;;;;;;34.00;6.90;;;4.60;99.90;;;;;;5092762;28;20043;-73
2022/01/30 06:23:59;;;;;;;36.40;6.72;;;4.60;99.90;;;;;;5094356;28;20111;-73
2022/01/30 06:26:25;;;;;;;42.63;7.47;;;4.70;99.90;;;;;;5093353;28;20138;-73
2022/01/30 06:28:51;;;;;;;35.50;7.10;;;4.70;99.90;;;;;;5093926;28;20313;-74
2022/01/30 06:31:16;;;;;;;38.25;7.28;;;4.70;99.90;;;;;;5094272;28;20036;-74
2022/01/30 06:33:43;;;;;;;43.22;7.60;;;4.80;99.90;;;;;;5094639;28;20091;-74
2022/01/30 06:36:08;;;;;;;45.58;7.32;;;4.80;99.90;;;;;;5093006;28;20071;-74
2022/01/30 06:38:34;;;;;;;39.25;7.70;;;4.80;99.90;;;;;;5094106;28;20040;-73
2022/01/30 06:40:59;;;;;;;44.90;8.05;;;4.80;99.90;;;;;;5093993;28;20039;-74
2022/01/30 06:43:25;;;;;;;44.95;7.00;;;4.90;99.90;;;;;;5092932;28;20048;-74
2022/01/30 06:45:51;;;;;;;37.67;7.82;;;4.90;99.90;;;;;;5094169;28;20130;-74
2022/01/30 06:48:20;;;;;;;35.63;7.22;;;4.90;99.90;;;;;;5094500;28;20400;-74
2022/01/30 06:50:46;;;;;;;35.17;6.72;;;5.00;99.90;;;;;;5094045;28;20051;-73
2022/01/30 06:53:12;;;;;;;36.00;6.70;;;5.00;99.90;;;;;;5092886;28;20051;-74
2022/01/30 06:55:42;;;;;;;42.05;8.80;;;5.10;99.90;;;;;;5094155;28;20048;-74
2022/01/30 06:58:08;;;;;;;35.97;6.70;;;5.10;99.90;;;;;;5093908;28;20048;-74
2022/01/30 07:00:33;;;;;;;55.57;7.70;;;5.20;99.90;;;;;;5094346;28;20432;-74
2022/01/30 07:03:00;;;;;;;38.83;7.57;;;5.10;99.90;;;;;;5093910;28;20131;-73
2022/01/30 07:05:26;;;;;;;44.25;7.45;;;5.10;99.90;;;;;;5093742;28;20052;-74
2022/01/30 07:07:52;;;;;;;52.50;7.53;;;5.10;99.90;;;;;;5093729;28;20055;-73
2022/01/30 07:10:18;;;;;;;41.58;7.28;;;5.00;99.90;;;;;;5093675;28;20085;-73
2022/01/30 07:12:44;;;;;;;35.58;7.75;;;5.00;99.90;;;;;;5093697;28;20097;-74
2022/01/30 07:15:10;;;;;;;39.28;6.30;;;5.00;99.90;;;;;;5093825;28;20551;-74
2022/01/30 07:17:36;;;;;;;39.27;7.63;;;4.80;99.90;;;;;;5093712;28;20445;-73
2022/01/30 07:20:02;;;;;;;41.17;7.85;;;4.80;99.90;;;;;;5094029;28;20044;-74
2022/01/30 07:22:28;;;;;;;37.72;7.45;;;4.80;99.90;;;;;;5093587;28;20048;-74
2022/01/30 07:24:54;;;;;;;41.83;8.95;;;4.80;99.90;;;;;;5093859;28;20044;-72
2022/01/30 07:27:20;;;;;;;36.10;6.53;;;4.90;99.90;;;;;;5093594;28;20036;-75
2022/01/30 07:29:45;;;;;;;34.85;7.97;;;4.90;99.90;;;;;;5093509;28;20097;-73
2022/01/30 07:32:11;;;;;;;44.35;7.15;;;5.00;99.90;;;;;;5093670;28;20077;-73
2022/01/30 07:34:37;;;;;;;38.75;7.18;;;5.10;99.90;;;;;;5097149;28;20043;-74
2022/01/30 07:37:04;;;;;;;40.60;7.93;;;5.00;99.90;;;;;;5097748;28;20040;-74
2022/01/30 07:39:31;;;;;;;39.95;8.25;;;5.10;99.90;;;;;;5097716;28;20044;-74
2022/01/30 07:41:57;;;;;;;47.63;7.97;;;5.30;99.90;;;;;;5097491;28;20047;-74
2022/01/30 07:44:23;;;;;;;41.92;7.78;;;5.30;99.90;;;;;;5097662;28;20072;-74
2022/01/30 07:46:48;;;;;;;40.83;7.88;;;5.30;99.90;;;;;;5097576;28;20126;-73
2022/01/30 07:49:14;;;;;;;36.92;7.00;;;5.40;99.90;;;;;;5097491;28;20055;-74
2022/01/30 07:51:40;;;;;;;37.40;7.65;;;5.40;99.90;;;;;;5097316;28;20097;-72
2022/01/30 07:54:06;;;;;;;39.47;7.25;;;5.40;99.90;;;;;;5097499;28;20048;-74
2022/01/30 07:56:31;;;;;;;52.60;8.10;;;5.40;99.90;;;;;;5097426;28;20046;-75
2022/01/30 07:58:57;;;;;;;45.75;8.60;;;5.40;99.90;;;;;;5096644;28;20052;-73
2022/01/30 08:01:23;;;;;;;42.22;8.05;;;5.40;99.90;;;;;;5097607;28;20048;-77
2022/01/30 08:03:48;;;;;;;53.10;9.82;;;5.40;99.90;;;;;;5097734;28;20093;-74
2022/01/30 08:06:14;;;;;;;44.95;8.00;;;5.40;99.90;;;;;;5097140;28;20464;-75
2022/01/30 08:08:39;;;;;;;38.72;7.35;;;5.40;99.90;;;;;;5097090;28;20082;-77
2022/01/30 08:11:08;;;;;;;35.88;7.05;;;5.40;99.90;;;;;;5097137;28;20052;-75
2022/01/30 08:13:33;;;;;;;44.28;8.23;;;5.40;99.90;;;;;;5096933;28;20122;-74
2022/01/30 08:15:59;;;;;;;48.03;7.70;;;5.40;99.90;;;;;;5097081;28;20471;-76
2022/01/30 08:18:25;;;;;;;44.35;7.20;;;5.50;99.90;;;;;;5096940;28;20554;-76
2022/01/30 08:20:50;;;;;;;53.40;9.73;;;5.50;99.90;;;;;;5096854;28;20048;-77
2022/01/30 08:23:18;;;;;;;40.55;7.20;;;5.50;99.90;;;;;;5096880;28;20036;-75
2022/01/30 08:25:44;;;;;;;37.22;7.50;;;5.50;99.90;;;;;;5096788;28;20123;-75
2022/01/30 08:28:10;;;;;;;43.72;8.98;;;5.60;99.90;;;;;;5096662;28;20174;-75
2022/01/30 08:30:35;;;;;;;38.47;7.78;;;5.60;99.90;;;;;;5097044;28;20043;-74
2022/01/30 08:33:02;;;;;;;43.78;7.50;;;5.60;99.90;;;;;;5096933;28;20131;-75
2022/01/30 08:35:29;;;;;;;41.42;7.35;;;5.60;99.90;;;;;;5096623;28;20044;-75
2022/01/30 08:37:59;;;;;;;46.10;8.35;;;5.70;99.90;;;;;;5096556;28;20052;-75
2022/01/30 08:40:26;;;;;;;35.25;6.78;;;5.70;99.90;;;;;;5096574;28;20089;-76
2022/01/30 08:42:52;;;;;;;43.47;7.78;;;5.70;99.90;;;;;;5096421;28;20052;-76
2022/01/30 08:45:19;;;;;;;41.10;7.07;;;5.70;99.90;;;;;;5094635;28;20051;-76
2022/01/30 08:47:45;;;;;;;;;;;5.70;99.90;;;;;;5096073;28;20484;-74
2022/01/30 08:50:14;;;;;;;30.05;5.97;;;5.70;99.90;;;;;;5096014;28;20427;-76
2022/01/30 08:52:40;;;;;;;32.42;6.63;;;5.80;99.90;;;;;;5095915;28;20047;-77
2022/01/30 08:55:08;;;;;;;24.88;5.30;;;5.80;99.90;;;;;;5095687;28;20046;-79
2022/01/30 08:57:34;;;;;;;30.60;6.22;;;5.90;99.90;;;;;;5095713;28;20044;-79
2022/01/30 09:00:00;;;;;;;25.48;5.80;;;6.00;99.90;;;;;;5077802;28;20458;-78
2022/01/30 09:02:26;;;;;;;32.97;6.40;;;6.00;99.90;;;;;;5095319;28;20036;-76
2022/01/30 09:04:52;;;;;;;37.80;6.63;;;6.00;99.90;;;;;;5096083;28;20377;-77
2022/01/30 09:07:18;;;;;;;32.72;6.53;;;6.00;99.90;;;;;;5095380;28;20040;-76
2022/01/30 09:09:45;;;;;;;31.10;7.45;;;6.00;99.90;;;;;;5095354;28;20059;-75
2022/01/30 09:12:10;;;;;;;32.90;6.30;;;6.00;99.90;;;;;;5093889;28;20063;-77
2022/01/30 09:14:39;;;;;;;35.08;7.53;;;6.00;99.90;;;;;;5095660;28;20416;-77
2022/01/30 09:17:13;;;;;;;30.85;5.90;;;6.00;99.90;;;;;;5095403;28;20098;-75
2022/01/30 09:19:41;;;;;;;31.98;6.35;;;6.00;99.90;;;;;;5094489;28;20044;-76
2022/01/30 09:22:08;;;;;;;40.08;8.07;;;6.00;99.90;;;;;;5077165;28;20136;-76
2022/01/30 09:24:33;;;;;;;;;;;6.00;99.90;;;;;;5094397;28;20488;-77
2022/01/30 09:26:59;;;;;;;33.92;6.60;;;6.00;99.90;;;;;;5095225;28;19920;-75
2022/01/30 09:29:26;;;;;;;37.90;6.45;;;6.00;99.90;;;;;;5094242;28;20091;-75
2022/01/30 09:31:52;;;;;;;30.83;6.30;;;6.00;99.90;;;;;;5095190;28;20380;-78
2022/01/30 09:34:17;;;;;;;37.45;7.45;;;6.10;99.90;;;;;;5094241;28;20050;-76
2022/01/30 09:36:43;;;;;;;35.20;7.70;;;6.10;99.90;;;;;;5095145;28;20480;-76
2022/01/30 09:39:08;;;;;;;37.35;7.15;;;6.20;99.90;;;;;;5094527;28;20044;-76
2022/01/30 09:41:36;;;;;;;42.03;7.70;;;6.30;99.90;;;;;;5093639;28;20048;-76
2022/01/30 09:44:02;;;;;;;39.40;7.18;;;6.30;99.90;;;;;;5094829;28;20044;-79
2022/01/30 09:46:32;;;;;;;34.25;7.38;;;6.30;99.90;;;;;;5094668;28;20399;-80
2022/01/30 09:48:59;;;;;;;44.42;7.65;;;6.30;99.90;;;;;;5094787;28;20145;-76
2022/01/30 09:51:26;;;;;;;36.85;7.10;;;6.20;99.90;;;;;;5093444;28;20510;-78
2022/01/30 09:53:51;;;;;;;32.10;6.72;;;6.30;99.90;;;;;;5094579;28;20043;-77
2022/01/30 09:56:18;;;;;;;41.30;8.57;;;6.20;99.90;;;;;;5094565;28;20056;-79
2022/01/30 09:58:45;;;;;;;33.83;5.75;;;6.30;99.90;;;;;;5094403;28;20496;-75
2022/01/30 10:01:11;;;;;;;37.55;7.05;;;6.30;99.90;;;;;;5092705;28;20575;-79
2022/01/30 10:03:37;;;;;;;34.25;7.05;;;6.40;99.90;;;;;;5094803;28;20136;-77
2022/01/30 10:06:10;;;;;;;25.25;6.38;;;6.40;99.90;;;;;;5093347;28;20047;-75
2022/01/30 10:08:43;;;;;;;37.92;7.38;;;6.30;99.90;;;;;;5094851;28;20075;-76
2022/01/30 10:11:41;;;;;;;39.03;7.10;;;6.30;99.90;;;;;;5095081;28;20052;-77
2022/01/30 10:14:04;;;;;;;42.33;8.35;;;6.30;99.90;;;;;;5094161;28;20134;-78
2022/01/30 10:16:36;;;;;;;41.30;8.40;;;6.30;99.90;;;;;;5094662;28;20071;-79
2022/01/30 10:19:11;;;;;;;39.38;7.00;;;6.40;99.90;;;;;;5093321;28;20484;-75
2022/01/30 10:21:37;;;;;;;41.13;8.35;;;6.80;99.90;;;;;;5094740;28;20040;-77
2022/01/30 10:24:18;;;;;;;34.22;7.65;;;6.50;99.90;;;;;;5094613;28;20075;-77
2022/01/30 10:26:44;;;;;;;40.03;7.85;;;6.50;99.90;;;;;;5093216;28;20396;-78
2022/01/30 10:29:31;;;;;;;46.08;8.25;;;6.70;99.90;;;;;;5093377;28;20164;-76
2022/01/30 10:31:59;;;;;;;41.58;9.23;;;6.60;99.90;;;;;;5094307;28;20044;-75
2022/01/30 10:34:26;;;;;;;41.88;8.45;;;6.60;99.90;;;;;;5094626;28;20048;-75
2022/01/30 10:37:21;;;;;;;42.97;7.97;;;6.70;99.90;;;;;;5094322;28;20124;-75
2022/01/30 10:39:54;;;;;;;43.40;8.00;;;6.70;99.90;;;;;;5094228;28;20058;-77
2022/01/30 10:42:33;;;;;;;33.90;7.40;;;6.70;99.90;;;;;;5094094;28;20089;-76
2022/01/30 10:44:59;;;;;;;34.63;8.23;;;6.80;99.90;;;;;;5094046;28;20480;-80
2022/01/30 10:47:25;;;;;;;38.85;7.88;;;6.80;99.90;;;;;;5092966;28;20104;-77
2022/01/30 10:49:51;;;;;;;35.70;7.15;;;6.80;99.90;;;;;;5094109;28;20392;-77
2022/01/30 10:52:17;;;;;;;42.80;7.25;;;6.90;99.90;;;;;;5094069;28;20065;-77
2022/01/30 10:54:49;;;;;;;42.90;7.30;;;6.90;99.90;;;;;;5094022;28;20044;-77
2022/01/30 10:57:15;;;;;;;38.78;7.38;;;7.00;99.90;;;;;;5094567;28;20043;-77
2022/01/30 10:59:52;;;;;;;33.42;6.95;;;7.00;99.90;;;;;;5093921;28;20052;-79
2022/01/30 11:02:22;;;;;;;33.78;6.68;;;7.00;99.90;;;;;;5093937;28;20040;-79
2022/01/30 11:04:49;;;;;;;36.17;7.28;;;7.10;99.90;;;;;;5093980;28;20063;-76
2022/01/30 11:07:17;;;;;;;35.15;6.72;;;7.10;99.90;;;;;;5093722;28;20048;-75
2022/01/30 11:10:06;;;;;;;30.92;6.55;;;7.10;99.90;;;;;;5093715;28;20052;-76
2022/01/30 11:12:43;;;;;;;37.65;7.28;;;7.20;99.90;;;;;;5093841;28;20044;-76
2022/01/30 11:15:20;;;;;;;29.58;7.10;;;7.30;99.90;;;;;;5093868;28;20059;-77
2022/01/30 11:17:47;;;;;;;36.38;7.47;;;7.40;99.90;;;;;;5094353;28;20153;-76
2022/01/30 11:20:13;;;;;;;37.63;7.72;;;7.50;99.90;;;;;;5093724;28;20048;-75
2022/01/30 11:22:44;;;;;;;43.63;7.75;;;7.60;99.90;;;;;;5093890;28;20043;-75
2022/01/30 11:25:12;;;;;;;32.58;7.10;;;7.60;99.90;;;;;;5093710;28;20044;-77
2022/01/30 11:27:40;;;;;;;36.53;7.38;;;7.50;99.90;;;;;;5093569;28;20044;-77
2022/01/30 11:30:07;;;;;;;36.95;7.55;;;7.40;99.90;;;;;;5093546;28;20051;-75
2022/01/30 11:32:32;;;;;;;34.17;7.35;;;7.40;99.90;;;;;;5093252;28;20515;-76
2022/01/30 11:34:58;;;;;;;43.80;8.35;;;7.40;99.90;;;;;;5094173;28;20040;-76
2022/01/30 11:37:27;;;;;;;34.90;7.28;;;7.30;99.90;;;;;;5093984;28;20051;-77
2022/01/30 11:39:53;;;;;;;45.72;7.53;;;7.30;99.90;;;;;;5093639;28;20036;-79
2022/01/30 11:42:21;;;;;;;40.50;9.23;;;7.20;99.90;;;;;;5093453;28;20044;-76
2022/01/30 11:45:10;;;;;;;40.03;7.88;;;7.10;99.90;;;;;;5095301;28;20113;-76
2022/01/30 11:48:16;;;;;;;36.53;7.78;;;7.10;99.90;;;;;;5093489;28;20047;-78
2022/01/30 11:50:42;;;;;;;31.67;6.55;;;7.00;99.90;;;;;;5059095;28;20055;-76
2022/01/30 11:53:10;;;;;;;35.97;7.30;;;7.00;99.90;;;;;;5093437;28;20044;-77
2022/01/30 11:55:57;;;;;;;35.08;7.13;;;7.00;99.90;;;;;;5093419;28;20052;-75
2022/01/30 11:58:43;;;;;;;29.17;6.70;;;7.00;99.90;;;;;;5093682;28;20051;-76
2022/01/30 12:01:25;;;;;;;38.15;7.63;;;6.90;99.90;;;;;;5093241;28;20063;-77
2022/01/30 12:04:06;;;;;;;37.03;7.28;;;6.90;99.90;;;;;;5092963;28;20540;-76
2022/01/30 12:06:34;;;;;;;32.72;7.20;;;6.90;99.90;;;;;;5093763;28;20036;-76
2022/01/30 12:09:24;;;;;;;33.72;6.75;;;7.10;99.90;;;;;;5093467;28;20055;-77
2022/01/30 12:11:51;;;;;;;30.30;5.72;;;7.30;99.90;;;;;;5091999;28;20050;-75
2022/01/30 12:14:20;;;;;;;;;;;7.50;99.90;;;;;;5093740;28;20052;-76
2022/01/30 12:16:45;;;;;;;25.48;5.38;;;7.60;99.90;;;;;;5093200;28;19924;-75
2022/01/30 12:19:13;;;;;;;28.58;6.03;;;7.50;99.90;;;;;;5093181;28;20400;-76
2022/01/30 12:21:39;;;;;;;29.95;7.20;;;7.40;99.90;;;;;;5096403;28;20043;-78
2022/01/30 12:24:25;;;;;;;44.00;7.13;;;8.00;99.90;;;;;;5096909;28;20048;-74
2022/01/30 12:26:56;;;;;;;29.70;6.22;;;7.60;99.90;;;;;;5096742;28;20061;-74
2022/01/30 12:29:35;;;;;;;32.15;7.03;;;7.50;99.90;;;;;;5097197;28;20090;-75
2022/01/30 12:32:19;;;;;;;35.20;6.40;;;7.40;99.90;;;;;;5096867;28;20040;-75
2022/01/30 12:34:54;;;;;;;25.70;5.32;;;7.40;99.90;;;;;;5096705;28;20075;-77
2022/01/30 12:37:21;;;;;;;31.92;6.68;;;7.30;99.90;;;;;;5097034;28;20044;-76
2022/01/30 12:39:47;;;;;;;28.92;5.95;;;7.20;99.90;;;;;;5096150;28;20508;-76
2022/01/30 12:42:15;;;;;;;27.77;5.95;;;7.10;99.90;;;;;;5096600;28;20040;-75
2022/01/30 12:44:41;;;;;;;32.92;6.30;;;7.10;99.90;;;;;;5096428;28;20040;-75
2022/01/30 12:47:06;;;;;;;31.48;6.18;;;7.10;99.90;;;;;;5096195;28;20067;-75
2022/01/30 12:49:40;;;;;;;33.58;7.10;;;7.20;99.90;;;;;;5096247;28;20048;-76
2022/01/30 12:52:08;;;;;;;33.20;7.30;;;7.30;99.90;;;;;;5096362;28;20132;-75
2022/01/30 12:54:39;;;;;;;24.15;5.82;;;7.50;99.90;;;;;;5096237;28;20046;-76
2022/01/30 12:57:06;;;;;;;25.83;5.95;;;7.60;99.90;;;;;;5096191;28;20048;-75
2022/01/30 12:59:32;;;;;;;32.28;6.28;;;7.70;99.90;;;;;;5095980;28;20400;-75
2022/01/30 13:02:09;;;;;;;27.50;6.07;;;7.80;99.90;;;;;;5096032;28;20044;-76
2022/01/30 13:04:36;;;;;;;31.95;6.53;;;7.80;99.90;;;;;;5096273;28;20050;-75
2022/01/30 13:07:02;;;;;;;;;;;7.80;99.90;;;;;;5096429;28;20084;-74
2022/01/30 13:09:33;;;;;;;28.35;6.25;;;7.70;99.90;;;;;;5095884;28;20017;-75
2022/01/30 13:12:10;;;;;;;32.67;7.22;;;7.70;99.90;;;;;;5095950;28;20502;-75
2022/01/30 13:14:37;;;;;;;27.15;5.90;;;7.70;99.90;;;;;;5095806;28;20040;-75
2022/01/30 13:17:04;;;;;;;33.00;7.97;;;7.60;99.90;;;;;;5095005;28;20430;-78
2022/01/30 13:19:33;;;;;;;31.27;6.75;;;7.60;99.90;;;;;;5094264;28;20050;-77
2022/01/30 13:22:00;;;;;;;27.27;6.22;;;7.60;99.90;;;;;;5094270;28;20047;-75
2022/01/30 13:24:26;;;;;;;33.33;6.47;;;7.60;99.90;;;;;;5093646;28;20047;-75
2022/01/30 13:27:04;;;;;;;27.65;6.55;;;7.70;99.90;;;;;;5095013;28;20047;-76
2022/01/30 13:29:36;;;;;;;33.63;6.47;;;7.70;99.90;;;;;;5096108;28;20066;-76
2022/01/30 13:32:08;;;;;;;36.45;6.93;;;7.70;99.90;;;;;;5095283;28;20047;-75
2022/01/30 13:34:34;;;;;;;31.85;6.97;;;7.80;99.90;;;;;;5095616;28;20051;-77
2022/01/30 13:37:03;;;;;;;32.63;6.37;;;7.90;99.90;;;;;;5095530;28;20126;-79
2022/01/30 13:39:45;;;;;;;31.17;6.07;;;7.90;99.90;;;;;;5095271;28;20479;-77
2022/01/30 13:42:31;;;;;;;32.05;6.38;;;8.00;99.90;;;;;;5095273;28;20036;-76
2022/01/30 13:46:54;;;;;;;38.22;6.93;;;8.00;99.90;;;;;;5095567;28;20048;-76
2022/01/30 13:48:10;;;;;;;32.33;6.72;;;8.00;99.90;;;;;;5094060;28;20060;-76